sensor_id;sensor_type;location;lat;lon;timestamp;P1;durP1;ratioP1;P2;durP2;ratioP2
64367;SDS011;50692;53.314;-6.300;2023-04-25T00:01:42;5.13;;;3.80;;
64367;SDS011;50692;53.314;-6.300;2023-04-25T00:04:28;10.10;;;4.60;;
64367;SDS011;50692;53.314;-6.300;2023-04-25T00:07:15;7.70;;;4.67;;
64367;SDS011;50692;53.314;-6.300;2023-04-25T00:10:01;7.37;;;3.30;;
64367;SDS011;50692;53.314;-6.300;2023-04-25T00:12:46;3.57;;;2.20;;
64367;SDS011;50692;53.314;-6.300;2023-04-25T00:15:33;3.97;;;1.97;;
64367;SDS011;50692;53.314;-6.300;2023-04-25T00:18:19;2.77;;;1.80;;
64367;SDS011;50692;53.314;-6.300;2023-04-25T00:21:05;2.63;;;1.87;;
64367;SDS011;50692;53.314;-6.300;2023-04-25T00:23:54;3.10;;;1.60;;
64367;SDS011;50692;53.314;-6.300;2023-04-25T00:29:27;1.80;;;1.40;;
64367;SDS011;50692;53.314;-6.300;2023-04-25T00:32:12;2.43;;;1.90;;
64367;SDS011;50692;53.314;-6.300;2023-04-25T00:34:58;2.83;;;1.80;;
64367;SDS011;50692;53.314;-6.300;2023-04-25T00:37:45;2.40;;;1.57;;
64367;SDS011;50692;53.314;-6.300;2023-04-25T00:40:31;3.30;;;1.70;;
64367;SDS011;50692;53.314;-6.300;2023-04-25T00:43:17;2.67;;;1.50;;
64367;SDS011;50692;53.314;-6.300;2023-04-25T00:46:03;3.03;;;1.67;;
64367;SDS011;50692;53.314;-6.300;2023-04-25T00:48:49;4.27;;;1.60;;
64367;SDS011;50692;53.314;-6.300;2023-04-25T00:51:35;2.30;;;1.87;;
64367;SDS011;50692;53.314;-6.300;2023-04-25T00:54:20;2.93;;;2.03;;
64367;SDS011;50692;53.314;-6.300;2023-04-25T00:57:06;2.63;;;1.77;;
64367;SDS011;50692;53.314;-6.300;2023-04-25T00:59:52;4.70;;;1.80;;
64367;SDS011;50692;53.314;-6.300;2023-04-25T01:02:38;2.50;;;1.90;;
64367;SDS011;50692;53.314;-6.300;2023-04-25T01:05:25;3.00;;;2.03;;
64367;SDS011;50692;53.314;-6.300;2023-04-25T01:08:12;3.17;;;2.20;;
64367;SDS011;50692;53.314;-6.300;2023-04-25T01:10:59;3.40;;;2.07;;
64367;SDS011;50692;53.314;-6.300;2023-04-25T01:13:44;2.80;;;2.20;;
64367;SDS011;50692;53.314;-6.300;2023-04-25T01:16:31;3.13;;;1.90;;
64367;SDS011;50692;53.314;-6.300;2023-04-25T01:19:17;3.20;;;2.00;;
64367;SDS011;50692;53.314;-6.300;2023-04-25T01:22:03;4.20;;;1.90;;
64367;SDS011;50692;53.314;-6.300;2023-04-25T01:24:49;2.33;;;1.70;;
64367;SDS011;50692;53.314;-6.300;2023-04-25T01:27:36;4.23;;;2.20;;
64367;SDS011;50692;53.314;-6.300;2023-04-25T01:30:22;4.70;;;2.30;;
64367;SDS011;50692;53.314;-6.300;2023-04-25T01:33:08;4.63;;;2.20;;
64367;SDS011;50692;53.314;-6.300;2023-04-25T01:35:54;3.93;;;2.30;;
64367;SDS011;50692;53.314;-6.300;2023-04-25T01:38:40;5.07;;;2.20;;
64367;SDS011;50692;53.314;-6.300;2023-04-25T01:41:27;3.97;;;2.20;;
64367;SDS011;50692;53.314;-6.300;2023-04-25T01:44:13;3.57;;;2.20;;
64367;SDS011;50692;53.314;-6.300;2023-04-25T01:46:59;3.20;;;2.20;;
64367;SDS011;50692;53.314;-6.300;2023-04-25T01:49:45;5.23;;;2.73;;
64367;SDS011;50692;53.314;-6.300;2023-04-25T01:52:31;3.83;;;2.63;;
64367;SDS011;50692;53.314;-6.300;2023-04-25T01:55:17;4.60;;;2.60;;
64367;SDS011;50692;53.314;-6.300;2023-04-25T01:58:02;4.97;;;2.70;;
64367;SDS011;50692;53.314;-6.300;2023-04-25T02:00:54;3.73;;;2.50;;
64367;SDS011;50692;53.314;-6.300;2023-04-25T02:03:40;3.83;;;2.50;;
64367;SDS011;50692;53.314;-6.300;2023-04-25T02:06:26;6.63;;;2.97;;
64367;SDS011;50692;53.314;-6.300;2023-04-25T02:09:12;4.83;;;2.67;;
64367;SDS011;50692;53.314;-6.300;2023-04-25T02:11:58;4.67;;;2.60;;
64367;SDS011;50692;53.314;-6.300;2023-04-25T02:14:44;3.70;;;2.70;;
64367;SDS011;50692;53.314;-6.300;2023-04-25T02:17:29;4.73;;;2.50;;
64367;SDS011;50692;53.314;-6.300;2023-04-25T02:20:17;3.23;;;2.33;;
64367;SDS011;50692;53.314;-6.300;2023-04-25T02:23:03;4.67;;;2.60;;
64367;SDS011;50692;53.314;-6.300;2023-04-25T02:25:49;3.87;;;2.40;;
64367;SDS011;50692;53.314;-6.300;2023-04-25T02:28:35;3.73;;;2.67;;
64367;SDS011;50692;53.314;-6.300;2023-04-25T02:31:21;3.30;;;2.17;;
64367;SDS011;50692;53.314;-6.300;2023-04-25T02:34:06;3.67;;;2.80;;
64367;SDS011;50692;53.314;-6.300;2023-04-25T02:36:52;5.23;;;2.50;;
64367;SDS011;50692;53.314;-6.300;2023-04-25T02:39:38;3.77;;;2.40;;
64367;SDS011;50692;53.314;-6.300;2023-04-25T02:42:24;6.23;;;2.80;;
64367;SDS011;50692;53.314;-6.300;2023-04-25T02:45:10;3.83;;;2.87;;
64367;SDS011;50692;53.314;-6.300;2023-04-25T02:47:56;3.73;;;2.47;;
64367;SDS011;50692;53.314;-6.300;2023-04-25T02:50:42;4.80;;;2.87;;
64367;SDS011;50692;53.314;-6.300;2023-04-25T02:53:27;5.70;;;2.97;;
64367;SDS011;50692;53.314;-6.300;2023-04-25T02:56:13;3.97;;;2.60;;
64367;SDS011;50692;53.314;-6.300;2023-04-25T02:58:59;4.40;;;2.90;;
64367;SDS011;50692;53.314;-6.300;2023-04-25T03:01:45;6.40;;;3.10;;
64367;SDS011;50692;53.314;-6.300;2023-04-25T03:04:31;4.67;;;2.83;;
64367;SDS011;50692;53.314;-6.300;2023-04-25T03:07:18;6.30;;;3.07;;
64367;SDS011;50692;53.314;-6.300;2023-04-25T03:10:04;5.17;;;2.97;;
64367;SDS011;50692;53.314;-6.300;2023-04-25T03:12:51;5.30;;;3.40;;
64367;SDS011;50692;53.314;-6.300;2023-04-25T03:15:39;3.90;;;2.83;;
64367;SDS011;50692;53.314;-6.300;2023-04-25T03:18:24;5.93;;;3.20;;
64367;SDS011;50692;53.314;-6.300;2023-04-25T03:21:10;5.90;;;2.87;;
64367;SDS011;50692;53.314;-6.300;2023-04-25T03:23:56;4.83;;;3.00;;
64367;SDS011;50692;53.314;-6.300;2023-04-25T03:26:42;5.13;;;3.07;;
64367;SDS011;50692;53.314;-6.300;2023-04-25T03:29:28;5.30;;;2.97;;
64367;SDS011;50692;53.314;-6.300;2023-04-25T03:32:14;3.53;;;2.47;;
64367;SDS011;50692;53.314;-6.300;2023-04-25T03:35:00;6.27;;;3.07;;
64367;SDS011;50692;53.314;-6.300;2023-04-25T03:37:45;5.13;;;3.17;;
64367;SDS011;50692;53.314;-6.300;2023-04-25T03:40:31;5.20;;;2.87;;
64367;SDS011;50692;53.314;-6.300;2023-04-25T03:43:17;6.00;;;3.10;;
64367;SDS011;50692;53.314;-6.300;2023-04-25T03:46:03;6.37;;;3.00;;
64367;SDS011;50692;53.314;-6.300;2023-04-25T03:48:49;5.40;;;3.13;;
64367;SDS011;50692;53.314;-6.300;2023-04-25T03:51:35;6.23;;;3.00;;
64367;SDS011;50692;53.314;-6.300;2023-04-25T03:54:20;4.83;;;2.90;;
64367;SDS011;50692;53.314;-6.300;2023-04-25T03:57:06;8.33;;;3.33;;
64367;SDS011;50692;53.314;-6.300;2023-04-25T03:59:52;6.37;;;3.40;;
64367;SDS011;50692;53.314;-6.300;2023-04-25T04:02:38;5.17;;;3.23;;
64367;SDS011;50692;53.314;-6.300;2023-04-25T04:05:24;5.40;;;2.80;;
64367;SDS011;50692;53.314;-6.300;2023-04-25T04:08:10;5.20;;;3.30;;
64367;SDS011;50692;53.314;-6.300;2023-04-25T04:10:56;5.43;;;3.00;;
64367;SDS011;50692;53.314;-6.300;2023-04-25T04:13:43;6.23;;;3.23;;
64367;SDS011;50692;53.314;-6.300;2023-04-25T04:16:29;5.43;;;3.30;;
64367;SDS011;50692;53.314;-6.300;2023-04-25T04:19:15;7.00;;;3.30;;
64367;SDS011;50692;53.314;-6.300;2023-04-25T04:22:00;5.50;;;3.00;;
64367;SDS011;50692;53.314;-6.300;2023-04-25T04:24:46;6.03;;;2.50;;
64367;SDS011;50692;53.314;-6.300;2023-04-25T04:27:33;3.90;;;2.70;;
64367;SDS011;50692;53.314;-6.300;2023-04-25T04:30:23;4.97;;;2.83;;
64367;SDS011;50692;53.314;-6.300;2023-04-25T04:35:55;4.57;;;2.50;;
64367;SDS011;50692;53.314;-6.300;2023-04-25T04:38:41;4.73;;;2.77;;
64367;SDS011;50692;53.314;-6.300;2023-04-25T04:41:27;4.10;;;2.50;;
64367;SDS011;50692;53.314;-6.300;2023-04-25T04:44:13;3.80;;;2.60;;
64367;SDS011;50692;53.314;-6.300;2023-04-25T04:47:00;8.03;;;3.00;;
64367;SDS011;50692;53.314;-6.300;2023-04-25T04:49:45;6.87;;;2.60;;
64367;SDS011;50692;53.314;-6.300;2023-04-25T04:52:31;7.33;;;3.00;;
64367;SDS011;50692;53.314;-6.300;2023-04-25T04:55:17;5.57;;;2.57;;
64367;SDS011;50692;53.314;-6.300;2023-04-25T04:58:03;4.20;;;2.80;;
64367;SDS011;50692;53.314;-6.300;2023-04-25T05:00:49;3.87;;;2.23;;
64367;SDS011;50692;53.314;-6.300;2023-04-25T05:03:35;4.33;;;2.50;;
64367;SDS011;50692;53.314;-6.300;2023-04-25T05:06:20;10.23;;;3.93;;
64367;SDS011;50692;53.314;-6.300;2023-04-25T05:09:06;3.40;;;2.00;;
64367;SDS011;50692;53.314;-6.300;2023-04-25T05:11:52;5.47;;;2.60;;
64367;SDS011;50692;53.314;-6.300;2023-04-25T05:14:38;3.60;;;2.20;;
64367;SDS011;50692;53.314;-6.300;2023-04-25T05:17:24;3.50;;;2.20;;
64367;SDS011;50692;53.314;-6.300;2023-04-25T05:20:11;4.03;;;2.37;;
64367;SDS011;50692;53.314;-6.300;2023-04-25T05:22:57;5.80;;;2.43;;
64367;SDS011;50692;53.314;-6.300;2023-04-25T05:25:43;4.73;;;2.43;;
64367;SDS011;50692;53.314;-6.300;2023-04-25T05:28:29;4.33;;;2.97;;
64367;SDS011;50692;53.314;-6.300;2023-04-25T05:31:14;3.90;;;2.27;;
64367;SDS011;50692;53.314;-6.300;2023-04-25T05:34:00;4.80;;;2.73;;
64367;SDS011;50692;53.314;-6.300;2023-04-25T05:36:46;3.70;;;2.40;;
64367;SDS011;50692;53.314;-6.300;2023-04-25T05:39:33;3.63;;;2.70;;
64367;SDS011;50692;53.314;-6.300;2023-04-25T05:42:19;3.77;;;2.97;;
64367;SDS011;50692;53.314;-6.300;2023-04-25T05:45:05;3.93;;;2.30;;
64367;SDS011;50692;53.314;-6.300;2023-04-25T05:47:51;4.53;;;2.53;;
64367;SDS011;50692;53.314;-6.300;2023-04-25T05:50:37;4.07;;;2.70;;
64367;SDS011;50692;53.314;-6.300;2023-04-25T05:53:23;4.33;;;2.60;;
64367;SDS011;50692;53.314;-6.300;2023-04-25T05:56:09;5.13;;;2.77;;
64367;SDS011;50692;53.314;-6.300;2023-04-25T05:58:55;4.50;;;2.73;;
64367;SDS011;50692;53.314;-6.300;2023-04-25T06:01:41;4.97;;;2.70;;
64367;SDS011;50692;53.314;-6.300;2023-04-25T06:04:27;6.20;;;2.80;;
64367;SDS011;50692;53.314;-6.300;2023-04-25T06:07:13;3.50;;;2.70;;
64367;SDS011;50692;53.314;-6.300;2023-04-25T06:09:58;4.93;;;2.77;;
64367;SDS011;50692;53.314;-6.300;2023-04-25T06:12:46;5.50;;;2.77;;
64367;SDS011;50692;53.314;-6.300;2023-04-25T06:15:32;5.70;;;2.93;;
64367;SDS011;50692;53.314;-6.300;2023-04-25T06:18:17;4.60;;;2.40;;
64367;SDS011;50692;53.314;-6.300;2023-04-25T06:21:03;4.03;;;2.43;;
64367;SDS011;50692;53.314;-6.300;2023-04-25T06:23:49;4.87;;;2.20;;
64367;SDS011;50692;53.314;-6.300;2023-04-25T06:26:36;4.87;;;2.70;;
64367;SDS011;50692;53.314;-6.300;2023-04-25T06:29:22;4.53;;;2.20;;
64367;SDS011;50692;53.314;-6.300;2023-04-25T06:32:08;4.87;;;2.50;;
64367;SDS011;50692;53.314;-6.300;2023-04-25T06:34:53;4.27;;;2.70;;
64367;SDS011;50692;53.314;-6.300;2023-04-25T06:37:39;4.80;;;2.60;;
64367;SDS011;50692;53.314;-6.300;2023-04-25T06:40:25;4.20;;;2.57;;
64367;SDS011;50692;53.314;-6.300;2023-04-25T06:43:11;5.43;;;2.70;;
64367;SDS011;50692;53.314;-6.300;2023-04-25T06:45:57;5.47;;;2.70;;
64367;SDS011;50692;53.314;-6.300;2023-04-25T06:48:43;11.10;;;3.63;;
64367;SDS011;50692;53.314;-6.300;2023-04-25T06:51:29;5.20;;;2.70;;
64367;SDS011;50692;53.314;-6.300;2023-04-25T06:54:16;6.00;;;3.33;;
64367;SDS011;50692;53.314;-6.300;2023-04-25T06:57:02;6.53;;;3.07;;
64367;SDS011;50692;53.314;-6.300;2023-04-25T06:59:48;4.57;;;3.13;;
64367;SDS011;50692;53.314;-6.300;2023-04-25T07:02:34;7.13;;;3.13;;
64367;SDS011;50692;53.314;-6.300;2023-04-25T07:05:21;5.97;;;3.33;;
64367;SDS011;50692;53.314;-6.300;2023-04-25T07:08:06;5.97;;;3.23;;
64367;SDS011;50692;53.314;-6.300;2023-04-25T07:10:52;6.83;;;4.93;;
64367;SDS011;50692;53.314;-6.300;2023-04-25T07:13:38;8.30;;;4.87;;
64367;SDS011;50692;53.314;-6.300;2023-04-25T07:16:24;7.90;;;5.80;;
64367;SDS011;50692;53.314;-6.300;2023-04-25T07:19:10;7.37;;;5.47;;
64367;SDS011;50692;53.314;-6.300;2023-04-25T07:21:55;11.33;;;6.53;;
64367;SDS011;50692;53.314;-6.300;2023-04-25T07:24:41;8.00;;;6.00;;
64367;SDS011;50692;53.314;-6.300;2023-04-25T07:27:27;7.53;;;5.50;;
64367;SDS011;50692;53.314;-6.300;2023-04-25T07:30:13;11.63;;;7.27;;
64367;SDS011;50692;53.314;-6.300;2023-04-25T07:32:59;10.23;;;6.53;;
64367;SDS011;50692;53.314;-6.300;2023-04-25T07:35:45;9.10;;;6.17;;
64367;SDS011;50692;53.314;-6.300;2023-04-25T07:38:32;11.00;;;6.00;;
64367;SDS011;50692;53.314;-6.300;2023-04-25T07:41:18;10.03;;;6.07;;
64367;SDS011;50692;53.314;-6.300;2023-04-25T07:44:04;7.23;;;5.00;;
64367;SDS011;50692;53.314;-6.300;2023-04-25T07:46:50;8.90;;;6.37;;
64367;SDS011;50692;53.314;-6.300;2023-04-25T07:49:36;9.37;;;6.27;;
64367;SDS011;50692;53.314;-6.300;2023-04-25T07:52:22;9.83;;;6.53;;
64367;SDS011;50692;53.314;-6.300;2023-04-25T07:55:08;10.97;;;6.77;;
64367;SDS011;50692;53.314;-6.300;2023-04-25T07:57:54;11.37;;;6.73;;
64367;SDS011;50692;53.314;-6.300;2023-04-25T08:00:40;11.90;;;7.53;;
64367;SDS011;50692;53.314;-6.300;2023-04-25T08:03:26;9.93;;;6.93;;
64367;SDS011;50692;53.314;-6.300;2023-04-25T08:06:12;10.93;;;6.70;;
64367;SDS011;50692;53.314;-6.300;2023-04-25T08:08:58;12.63;;;6.37;;
64367;SDS011;50692;53.314;-6.300;2023-04-25T08:11:45;10.53;;;6.27;;
64367;SDS011;50692;53.314;-6.300;2023-04-25T08:14:31;9.30;;;5.60;;
64367;SDS011;50692;53.314;-6.300;2023-04-25T08:17:21;8.10;;;5.07;;
64367;SDS011;50692;53.314;-6.300;2023-04-25T08:20:06;11.63;;;5.70;;
64367;SDS011;50692;53.314;-6.300;2023-04-25T08:22:52;6.37;;;4.20;;
64367;SDS011;50692;53.314;-6.300;2023-04-25T08:25:38;10.13;;;4.63;;
64367;SDS011;50692;53.314;-6.300;2023-04-25T08:28:24;8.37;;;4.77;;
64367;SDS011;50692;53.314;-6.300;2023-04-25T08:31:10;7.37;;;4.60;;
64367;SDS011;50692;53.314;-6.300;2023-04-25T08:33:56;9.73;;;4.90;;
64367;SDS011;50692;53.314;-6.300;2023-04-25T08:36:42;7.17;;;4.20;;
64367;SDS011;50692;53.314;-6.300;2023-04-25T08:39:27;5.07;;;3.67;;
64367;SDS011;50692;53.314;-6.300;2023-04-25T08:42:14;6.93;;;3.30;;
64367;SDS011;50692;53.314;-6.300;2023-04-25T08:45:01;4.57;;;3.03;;
64367;SDS011;50692;53.314;-6.300;2023-04-25T08:47:48;3.07;;;2.30;;
64367;SDS011;50692;53.314;-6.300;2023-04-25T08:53:37;3.97;;;2.35;;
64367;SDS011;50692;53.314;-6.300;2023-04-25T08:56:28;3.67;;;2.50;;
64367;SDS011;50692;53.314;-6.300;2023-04-25T08:59:14;4.27;;;2.50;;
64367;SDS011;50692;53.314;-6.300;2023-04-25T09:02:00;2.80;;;2.07;;
64367;SDS011;50692;53.314;-6.300;2023-04-25T09:04:46;3.53;;;2.20;;
64367;SDS011;50692;53.314;-6.300;2023-04-25T09:07:33;2.57;;;1.70;;
64367;SDS011;50692;53.314;-6.300;2023-04-25T09:10:18;2.67;;;1.60;;
64367;SDS011;50692;53.314;-6.300;2023-04-25T09:13:07;2.50;;;1.80;;
64367;SDS011;50692;53.314;-6.300;2023-04-25T09:18:42;3.40;;;1.77;;
64367;SDS011;50692;53.314;-6.300;2023-04-25T09:21:28;3.73;;;1.77;;
64367;SDS011;50692;53.314;-6.300;2023-04-25T09:24:16;2.37;;;1.57;;
64367;SDS011;50692;53.314;-6.300;2023-04-25T09:27:20;3.83;;;1.70;;
64367;SDS011;50692;53.314;-6.300;2023-04-25T09:30:10;3.77;;;1.70;;
64367;SDS011;50692;53.314;-6.300;2023-04-25T09:32:58;3.33;;;1.70;;
64367;SDS011;50692;53.314;-6.300;2023-04-25T09:35:53;4.22;;;1.83;;
64367;SDS011;50692;53.314;-6.300;2023-04-25T09:38:41;3.28;;;2.38;;
64367;SDS011;50692;53.314;-6.300;2023-04-25T09:41:31;4.07;;;2.22;;
64367;SDS011;50692;53.314;-6.300;2023-04-25T09:44:22;2.75;;;2.10;;
64367;SDS011;50692;53.314;-6.300;2023-04-25T09:47:10;2.95;;;2.08;;
64367;SDS011;50692;53.314;-6.300;2023-04-25T09:49:58;3.78;;;2.10;;
64367;SDS011;50692;53.314;-6.300;2023-04-25T09:52:44;3.45;;;1.75;;
64367;SDS011;50692;53.314;-6.300;2023-04-25T09:55:30;3.63;;;1.85;;
64367;SDS011;50692;53.314;-6.300;2023-04-25T09:58:18;3.60;;;1.70;;
64367;SDS011;50692;53.314;-6.300;2023-04-25T10:01:06;3.42;;;1.77;;
64367;SDS011;50692;53.314;-6.300;2023-04-25T10:03:56;5.18;;;1.67;;
64367;SDS011;50692;53.314;-6.300;2023-04-25T10:06:43;4.00;;;1.90;;
64367;SDS011;50692;53.314;-6.300;2023-04-25T10:09:31;3.38;;;1.70;;
64367;SDS011;50692;53.314;-6.300;2023-04-25T10:12:21;2.78;;;1.63;;
64367;SDS011;50692;53.314;-6.300;2023-04-25T10:15:07;5.18;;;2.17;;
64367;SDS011;50692;53.314;-6.300;2023-04-25T10:17:54;3.70;;;1.75;;
64367;SDS011;50692;53.314;-6.300;2023-04-25T10:20:41;2.90;;;1.55;;
64367;SDS011;50692;53.314;-6.300;2023-04-25T10:23:31;3.60;;;1.50;;
64367;SDS011;50692;53.314;-6.300;2023-04-25T10:26:19;3.30;;;1.70;;
64367;SDS011;50692;53.314;-6.300;2023-04-25T10:29:05;2.72;;;2.00;;
64367;SDS011;50692;53.314;-6.300;2023-04-25T10:31:51;4.25;;;1.70;;
64367;SDS011;50692;53.314;-6.300;2023-04-25T10:34:41;4.00;;;1.67;;
64367;SDS011;50692;53.314;-6.300;2023-04-25T10:37:31;3.58;;;1.67;;
64367;SDS011;50692;53.314;-6.300;2023-04-25T10:40:21;5.50;;;1.92;;
64367;SDS011;50692;53.314;-6.300;2023-04-25T10:46:21;3.50;;;2.10;;
64367;SDS011;50692;53.314;-6.300;2023-04-25T10:49:08;2.70;;;1.60;;
64367;SDS011;50692;53.314;-6.300;2023-04-25T10:55:20;3.72;;;1.80;;
64367;SDS011;50692;53.314;-6.300;2023-04-25T10:58:06;2.65;;;1.63;;
64367;SDS011;50692;53.314;-6.300;2023-04-25T11:00:52;4.20;;;2.08;;
64367;SDS011;50692;53.314;-6.300;2023-04-25T11:03:38;3.10;;;1.50;;
64367;SDS011;50692;53.314;-6.300;2023-04-25T11:09:23;3.53;;;1.83;;
64367;SDS011;50692;53.314;-6.300;2023-04-25T11:12:10;3.10;;;1.48;;
64367;SDS011;50692;53.314;-6.300;2023-04-25T11:15:04;3.95;;;1.70;;
64367;SDS011;50692;53.314;-6.300;2023-04-25T11:17:52;3.40;;;1.70;;
64367;SDS011;50692;53.314;-6.300;2023-04-25T11:20:38;3.67;;;1.65;;
64367;SDS011;50692;53.314;-6.300;2023-04-25T11:23:24;3.40;;;1.65;;
64367;SDS011;50692;53.314;-6.300;2023-04-25T11:26:10;3.33;;;1.48;;
64367;SDS011;50692;53.314;-6.300;2023-04-25T11:28:59;2.92;;;1.92;;
64367;SDS011;50692;53.314;-6.300;2023-04-25T11:31:48;3.78;;;1.60;;
64367;SDS011;50692;53.314;-6.300;2023-04-25T11:34:34;2.53;;;1.67;;
64367;SDS011;50692;53.314;-6.300;2023-04-25T11:37:20;3.63;;;1.77;;
64367;SDS011;50692;53.314;-6.300;2023-04-25T11:40:06;3.92;;;1.55;;
64367;SDS011;50692;53.314;-6.300;2023-04-25T11:42:54;2.97;;;1.70;;
64367;SDS011;50692;53.314;-6.300;2023-04-25T11:45:40;2.55;;;1.50;;
64367;SDS011;50692;53.314;-6.300;2023-04-25T11:48:27;2.58;;;1.27;;
64367;SDS011;50692;53.314;-6.300;2023-04-25T11:51:13;2.92;;;1.38;;
64367;SDS011;50692;53.314;-6.300;2023-04-25T11:54:00;2.58;;;1.13;;
64367;SDS011;50692;53.314;-6.300;2023-04-25T11:56:46;3.38;;;1.58;;
64367;SDS011;50692;53.314;-6.300;2023-04-25T11:59:31;3.38;;;1.92;;
64367;SDS011;50692;53.314;-6.300;2023-04-25T12:02:24;3.75;;;1.73;;
64367;SDS011;50692;53.314;-6.300;2023-04-25T12:05:11;2.42;;;1.23;;
64367;SDS011;50692;53.314;-6.300;2023-04-25T12:08:09;2.63;;;1.23;;
64367;SDS011;50692;53.314;-6.300;2023-04-25T12:10:58;2.20;;;1.73;;
64367;SDS011;50692;53.314;-6.300;2023-04-25T12:13:44;2.55;;;1.52;;
64367;SDS011;50692;53.314;-6.300;2023-04-25T12:16:39;2.95;;;1.63;;
64367;SDS011;50692;53.314;-6.300;2023-04-25T12:19:31;3.17;;;1.60;;
64367;SDS011;50692;53.314;-6.300;2023-04-25T12:22:23;4.38;;;1.70;;
64367;SDS011;50692;53.314;-6.300;2023-04-25T12:25:13;3.15;;;1.55;;
64367;SDS011;50692;53.314;-6.300;2023-04-25T12:28:20;2.42;;;1.40;;
64367;SDS011;50692;53.314;-6.300;2023-04-25T12:31:09;2.97;;;1.60;;
64367;SDS011;50692;53.314;-6.300;2023-04-25T12:33:54;2.83;;;1.50;;
64367;SDS011;50692;53.314;-6.300;2023-04-25T12:36:41;4.07;;;1.70;;
64367;SDS011;50692;53.314;-6.300;2023-04-25T12:39:27;2.92;;;1.70;;
64367;SDS011;50692;53.314;-6.300;2023-04-25T12:42:13;3.53;;;1.90;;
64367;SDS011;50692;53.314;-6.300;2023-04-25T12:44:59;3.58;;;1.75;;
64367;SDS011;50692;53.314;-6.300;2023-04-25T12:47:44;3.35;;;1.40;;
64367;SDS011;50692;53.314;-6.300;2023-04-25T12:50:31;4.00;;;1.60;;
64367;SDS011;50692;53.314;-6.300;2023-04-25T12:53:20;3.25;;;2.03;;
64367;SDS011;50692;53.314;-6.300;2023-04-25T12:56:08;3.25;;;1.60;;
64367;SDS011;50692;53.314;-6.300;2023-04-25T12:58:54;4.70;;;2.28;;
64367;SDS011;50692;53.314;-6.300;2023-04-25T13:01:40;3.00;;;1.80;;
64367;SDS011;50692;53.314;-6.300;2023-04-25T13:04:26;3.70;;;1.60;;
64367;SDS011;50692;53.314;-6.300;2023-04-25T13:07:12;6.13;;;1.98;;
64367;SDS011;50692;53.314;-6.300;2023-04-25T13:09:58;4.45;;;2.35;;
64367;SDS011;50692;53.314;-6.300;2023-04-25T13:12:44;5.65;;;2.35;;
64367;SDS011;50692;53.314;-6.300;2023-04-25T13:15:32;3.55;;;2.00;;
64367;SDS011;50692;53.314;-6.300;2023-04-25T13:18:18;4.68;;;2.30;;
64367;SDS011;50692;53.314;-6.300;2023-04-25T13:21:04;4.43;;;2.15;;
64367;SDS011;50692;53.314;-6.300;2023-04-25T13:23:50;4.78;;;2.10;;
64367;SDS011;50692;53.314;-6.300;2023-04-25T13:26:36;6.45;;;2.42;;
64367;SDS011;50692;53.314;-6.300;2023-04-25T13:29:22;5.82;;;3.17;;
64367;SDS011;50692;53.314;-6.300;2023-04-25T13:32:08;3.92;;;2.25;;
64367;SDS011;50692;53.314;-6.300;2023-04-25T13:34:54;5.25;;;2.53;;
64367;SDS011;50692;53.314;-6.300;2023-04-25T13:37:41;3.92;;;2.38;;
64367;SDS011;50692;53.314;-6.300;2023-04-25T13:40:27;8.65;;;3.05;;
64367;SDS011;50692;53.314;-6.300;2023-04-25T13:43:13;3.72;;;2.47;;
64367;SDS011;50692;53.314;-6.300;2023-04-25T13:45:59;6.75;;;2.50;;
64367;SDS011;50692;53.314;-6.300;2023-04-25T13:48:44;4.40;;;2.65;;
64367;SDS011;50692;53.314;-6.300;2023-04-25T13:51:31;4.70;;;2.35;;
64367;SDS011;50692;53.314;-6.300;2023-04-25T13:54:17;4.93;;;2.45;;
64367;SDS011;50692;53.314;-6.300;2023-04-25T13:57:03;5.47;;;2.55;;
64367;SDS011;50692;53.314;-6.300;2023-04-25T13:59:50;5.78;;;2.70;;
64367;SDS011;50692;53.314;-6.300;2023-04-25T14:02:36;6.45;;;2.70;;
64367;SDS011;50692;53.314;-6.300;2023-04-25T14:05:22;2.60;;;2.10;;
64367;SDS011;50692;53.314;-6.300;2023-04-25T14:08:08;5.82;;;2.30;;
64367;SDS011;50692;53.314;-6.300;2023-04-25T14:10:55;7.55;;;2.80;;
64367;SDS011;50692;53.314;-6.300;2023-04-25T14:13:40;5.53;;;2.53;;
64367;SDS011;50692;53.314;-6.300;2023-04-25T14:16:26;4.35;;;2.38;;
64367;SDS011;50692;53.314;-6.300;2023-04-25T14:19:12;4.22;;;2.20;;
64367;SDS011;50692;53.314;-6.300;2023-04-25T14:21:58;4.13;;;2.42;;
64367;SDS011;50692;53.314;-6.300;2023-04-25T14:24:44;4.78;;;1.92;;
64367;SDS011;50692;53.314;-6.300;2023-04-25T14:27:30;6.75;;;2.10;;
64367;SDS011;50692;53.314;-6.300;2023-04-25T14:30:17;4.45;;;2.30;;
64367;SDS011;50692;53.314;-6.300;2023-04-25T14:33:03;4.50;;;2.40;;
64367;SDS011;50692;53.314;-6.300;2023-04-25T14:35:49;4.10;;;2.00;;
64367;SDS011;50692;53.314;-6.300;2023-04-25T14:38:35;5.43;;;2.38;;
64367;SDS011;50692;53.314;-6.300;2023-04-25T14:41:21;4.82;;;1.58;;
64367;SDS011;50692;53.314;-6.300;2023-04-25T14:44:06;3.58;;;1.92;;
64367;SDS011;50692;53.314;-6.300;2023-04-25T14:46:53;4.03;;;1.90;;
64367;SDS011;50692;53.314;-6.300;2023-04-25T14:49:38;4.70;;;2.03;;
64367;SDS011;50692;53.314;-6.300;2023-04-25T14:52:24;4.38;;;2.00;;
64367;SDS011;50692;53.314;-6.300;2023-04-25T14:55:11;4.22;;;2.00;;
64367;SDS011;50692;53.314;-6.300;2023-04-25T14:57:57;3.90;;;2.25;;
64367;SDS011;50692;53.314;-6.300;2023-04-25T15:00:43;5.05;;;2.55;;
64367;SDS011;50692;53.314;-6.300;2023-04-25T15:03:30;3.70;;;2.22;;
64367;SDS011;50692;53.314;-6.300;2023-04-25T15:06:16;5.68;;;2.05;;
64367;SDS011;50692;53.314;-6.300;2023-04-25T15:09:03;7.30;;;2.53;;
64367;SDS011;50692;53.314;-6.300;2023-04-25T15:11:49;3.13;;;1.88;;
64367;SDS011;50692;53.314;-6.300;2023-04-25T15:14:35;6.57;;;2.67;;
64367;SDS011;50692;53.314;-6.300;2023-04-25T15:17:21;4.65;;;1.98;;
64367;SDS011;50692;53.314;-6.300;2023-04-25T15:20:08;6.82;;;2.75;;
64367;SDS011;50692;53.314;-6.300;2023-04-25T15:22:55;4.70;;;2.50;;
64367;SDS011;50692;53.314;-6.300;2023-04-25T15:25:41;3.83;;;2.08;;
64367;SDS011;50692;53.314;-6.300;2023-04-25T15:28:27;3.90;;;2.15;;
64367;SDS011;50692;53.314;-6.300;2023-04-25T15:31:13;4.28;;;2.05;;
64367;SDS011;50692;53.314;-6.300;2023-04-25T15:33:59;3.72;;;2.10;;
64367;SDS011;50692;53.314;-6.300;2023-04-25T15:36:45;5.80;;;2.25;;
64367;SDS011;50692;53.314;-6.300;2023-04-25T15:39:31;5.93;;;1.98;;
64367;SDS011;50692;53.314;-6.300;2023-04-25T15:42:17;3.25;;;2.10;;
64367;SDS011;50692;53.314;-6.300;2023-04-25T15:45:03;5.65;;;2.22;;
64367;SDS011;50692;53.314;-6.300;2023-04-25T15:47:50;5.05;;;2.40;;
64367;SDS011;50692;53.314;-6.300;2023-04-25T15:50:37;4.60;;;2.20;;
64367;SDS011;50692;53.314;-6.300;2023-04-25T15:53:23;3.42;;;2.00;;
64367;SDS011;50692;53.314;-6.300;2023-04-25T15:56:10;6.05;;;3.35;;
64367;SDS011;50692;53.314;-6.300;2023-04-25T15:58:56;4.35;;;2.65;;
64367;SDS011;50692;53.314;-6.300;2023-04-25T16:01:42;4.75;;;2.60;;
64367;SDS011;50692;53.314;-6.300;2023-04-25T16:04:29;5.25;;;2.25;;
64367;SDS011;50692;53.314;-6.300;2023-04-25T16:07:19;6.10;;;2.55;;
64367;SDS011;50692;53.314;-6.300;2023-04-25T16:10:05;3.65;;;2.55;;
64367;SDS011;50692;53.314;-6.300;2023-04-25T16:12:52;4.47;;;2.72;;
64367;SDS011;50692;53.314;-6.300;2023-04-25T16:15:38;6.28;;;3.00;;
64367;SDS011;50692;53.314;-6.300;2023-04-25T16:18:25;6.75;;;3.10;;
64367;SDS011;50692;53.314;-6.300;2023-04-25T16:21:10;5.57;;;2.83;;
64367;SDS011;50692;53.314;-6.300;2023-04-25T16:24:00;6.20;;;2.85;;
64367;SDS011;50692;53.314;-6.300;2023-04-25T16:26:46;5.72;;;2.90;;
64367;SDS011;50692;53.314;-6.300;2023-04-25T16:29:32;6.65;;;3.38;;
64367;SDS011;50692;53.314;-6.300;2023-04-25T16:32:18;3.90;;;2.85;;
64367;SDS011;50692;53.314;-6.300;2023-04-25T16:35:04;3.95;;;2.80;;
64367;SDS011;50692;53.314;-6.300;2023-04-25T16:37:50;6.00;;;3.40;;
64367;SDS011;50692;53.314;-6.300;2023-04-25T16:40:36;5.65;;;2.85;;
64367;SDS011;50692;53.314;-6.300;2023-04-25T16:43:22;4.43;;;3.03;;
64367;SDS011;50692;53.314;-6.300;2023-04-25T16:46:08;5.65;;;2.88;;
64367;SDS011;50692;53.314;-6.300;2023-04-25T16:48:54;6.95;;;2.80;;